Archival Weather

Republic

Farmingdale, New York (KFRG)

Report from: Friday, February 2, 2024 2:53 AM EST
Current time: Monday, June 17, 2024 2:27 AM EDT

Current weather – Weather history – Daily summaries
Weather forecast

Present weatherMist
Temperature5.0°C (41.0°F)
Wind chill3.9°C (39.0°F)
Dew point3.3°C (37.9°F)
Winds 3 kts (1.5 m/s, 3.5 mph) West-Southwest (240°)
Visibility6 mi. (9.7 km)
Clouds Ceiling: Overcast 3,600 ft. (1,097 m)
Altimeter29.86 in.Hg (1011 mB)
Precipitiation0.06 in. (2 mm)
Relative humidity89 %
Density altitude-1,028 ft. (-313 m)
Sea-level pressure101.1 kPa (1011 mB, 29.86 in.Hg)
Remarks Fully automated report
Automated weather observing station without precipitation discriminator
Flight conditions Visual Meteorological Conditions
Raw dataKFRG 020753Z AUTO 24003KT 6SM BR OVC036 05/03 A2986 RMK AO1 SLP113 P0006 T00500033
An error has occurred. This application may no longer respond until reloaded. Reload 🗙